createdAt,value
2022-09-28T00:02:13.721Z,1.38
2022-09-28T00:04:40.480Z,1.48
2022-09-28T00:07:07.281Z,1.50
2022-09-28T00:09:34.019Z,1.45
2022-09-28T00:12:00.836Z,1.40
2022-09-28T00:14:27.737Z,1.98
2022-09-28T00:24:45.676Z,1.83
2022-09-28T00:27:32.725Z,1.23
2022-09-28T00:30:19.783Z,1.40
2022-09-28T00:32:46.502Z,1.10
2022-09-28T00:35:13.230Z,1.10
2022-09-28T00:37:40.905Z,1.92
2022-09-28T00:40:08.006Z,1.90
2022-09-28T00:42:35.221Z,1.00
2022-09-28T00:45:01.950Z,1.65
2022-09-28T00:47:51.674Z,1.10
2022-09-28T00:50:36.474Z,1.77
2022-09-28T00:53:14.599Z,1.63
2022-09-28T00:56:09.294Z,1.48
2022-09-28T00:58:44.276Z,1.23
2022-09-28T01:01:12.430Z,1.40
2022-09-28T01:03:45.307Z,1.20
2022-09-28T01:06:27.599Z,1.98
2022-09-28T01:08:58.634Z,1.13
2022-09-28T01:11:27.041Z,1.15
2022-09-28T01:13:57.688Z,1.45
2022-09-28T01:39:39.688Z,1.02
2022-09-28T01:42:14.613Z,1.38
2022-09-28T01:48:58.431Z,1.90
2022-09-28T01:51:36.970Z,3.33
2022-09-28T01:54:14.130Z,5.97
2022-09-28T01:56:46.599Z,7.45
2022-09-28T01:59:36.822Z,7.18
2022-09-28T02:02:29.656Z,9.27
2022-09-28T02:05:21.301Z,8.68
2022-09-28T02:08:21.199Z,6.90
2022-09-28T02:11:13.526Z,7.18
2022-09-28T02:14:10.437Z,6.72
2022-09-28T02:29:17.856Z,2.80
2022-09-28T02:35:39.882Z,1.70
2022-09-28T02:38:06.826Z,2.78
2022-09-28T02:40:35.546Z,1.15
2022-09-28T02:43:43.597Z,1.30
2022-09-28T02:46:19.239Z,1.17
2022-09-28T02:56:46.417Z,0.93
2022-09-28T02:59:31.689Z,1.45
2022-09-28T04:32:30.289Z,1.02
2022-09-28T04:35:17.529Z,0.85
2022-09-28T04:38:05.009Z,0.80
2022-09-28T04:40:31.742Z,0.75
2022-09-28T04:43:01.627Z,0.50
2022-09-28T04:45:28.728Z,0.80
2022-09-28T04:47:55.506Z,0.43
2022-09-28T04:50:22.338Z,0.38
2022-09-28T04:52:50.201Z,0.40
2022-09-28T04:55:17.120Z,0.63
2022-09-28T04:57:43.832Z,0.70
2022-09-28T05:00:12.187Z,0.55
2022-09-28T05:02:39.346Z,0.45
2022-09-28T05:05:06.515Z,0.68
2022-09-28T05:07:33.201Z,0.60
2022-09-28T05:10:00.737Z,1.10
2022-09-28T05:12:27.409Z,1.42
2022-09-28T05:14:54.087Z,1.13
2022-09-28T05:17:20.782Z,1.67
2022-09-28T05:19:47.486Z,0.63
2022-09-28T05:22:15.175Z,0.75
2022-09-28T05:24:41.950Z,1.40
2022-09-28T05:27:08.780Z,0.50
2022-09-28T05:29:35.564Z,0.57
2022-09-28T05:32:02.432Z,0.50
2022-09-28T05:34:29.456Z,0.50
2022-09-28T05:36:56.211Z,0.77
2022-09-28T05:39:22.970Z,0.50
2022-09-28T05:41:49.759Z,0.68
2022-09-28T05:44:16.679Z,0.52
2022-09-28T05:46:43.474Z,1.33
2022-09-28T05:49:10.190Z,0.80
2022-09-28T05:51:36.917Z,0.95
2022-09-28T05:54:06.097Z,1.25
2022-09-28T05:56:33.421Z,0.65
2022-09-28T05:59:00.207Z,1.50
2022-09-28T06:01:27.122Z,0.93
2022-09-28T06:03:53.870Z,0.80
2022-09-28T06:06:21.167Z,0.60
2022-09-28T06:08:48.596Z,1.10
2022-09-28T06:11:15.411Z,1.10
2022-09-28T06:13:42.188Z,0.50
2022-09-28T06:16:10.632Z,0.80
2022-09-28T06:18:37.308Z,0.57
2022-09-28T06:21:05.979Z,0.60
2022-09-28T06:23:32.672Z,0.98
2022-09-28T06:26:00.159Z,0.90
2022-09-28T06:28:27.070Z,1.00
2022-09-28T06:30:54.219Z,0.80
2022-09-28T06:33:21.985Z,0.63
2022-09-28T06:35:48.731Z,0.80
2022-09-28T06:38:15.432Z,0.80
2022-09-28T06:40:42.219Z,0.60
2022-09-28T06:43:35.248Z,0.68
2022-09-28T06:46:03.153Z,1.00
2022-09-28T06:53:14.011Z,0.47
2022-09-28T07:04:20.077Z,0.90
2022-09-28T07:06:57.571Z,0.75
2022-09-28T07:09:55.254Z,1.20
2022-09-28T07:12:24.106Z,1.20
2022-09-28T07:14:56.202Z,0.60
2022-09-28T07:17:24.187Z,1.05
2022-09-28T07:19:54.156Z,0.82
2022-09-28T07:22:32.614Z,0.45
2022-09-28T07:25:05.699Z,0.70
2022-09-28T07:31:13.109Z,0.35
2022-09-28T07:33:39.970Z,0.70
2022-09-28T07:36:07.344Z,0.80
2022-09-28T07:38:34.049Z,0.80
2022-09-28T07:41:12.945Z,0.70
2022-09-28T07:47:34.901Z,0.60
2022-09-28T07:58:14.854Z,0.50
2022-09-28T08:04:53.582Z,1.05
2022-09-28T08:07:23.830Z,1.05
2022-09-28T08:10:11.787Z,0.80
2022-09-28T08:16:57.185Z,0.95
2022-09-28T08:19:24.992Z,0.90
2022-09-28T08:21:51.702Z,19.83
2022-09-28T08:24:19.310Z,19.38
2022-09-28T08:34:48.798Z,1.58
2022-09-28T08:37:15.559Z,1.33
2022-09-28T08:44:00.716Z,0.52
2022-09-28T08:46:37.506Z,0.52
2022-09-28T08:49:24.847Z,0.38
2022-09-28T08:52:30.196Z,0.60
2022-09-28T08:55:33.196Z,1.52
2022-09-28T09:02:04.599Z,0.55
2022-09-28T09:04:33.726Z,0.65
2022-09-28T09:07:03.400Z,0.60
2022-09-28T09:13:32.985Z,0.95
2022-09-28T09:16:18.126Z,0.75
2022-09-28T09:18:58.754Z,1.15
2022-09-28T09:21:51.515Z,0.68
2022-09-28T09:24:55.268Z,0.85
2022-09-28T09:27:54.230Z,0.73
2022-09-28T09:31:05.055Z,0.63
2022-09-28T09:34:13.202Z,0.70
2022-09-28T09:37:17.186Z,0.63
2022-09-28T09:47:49.487Z,0.70
2022-09-28T09:50:29.804Z,0.73
2022-09-28T09:53:36.200Z,0.57
2022-09-28T09:56:15.989Z,0.50
2022-09-28T10:02:25.309Z,1.48
2022-09-28T10:16:58.707Z,0.90
2022-09-28T10:20:41.954Z,1.40
2022-09-28T10:23:36.492Z,0.60
2022-09-28T10:30:20.447Z,0.57
2022-09-28T10:41:17.284Z,0.43
2022-09-28T10:44:07.352Z,0.50
2022-09-28T10:46:36.070Z,0.80
2022-09-28T10:49:26.092Z,0.60
2022-09-28T10:51:56.275Z,0.73
2022-09-28T11:06:07.762Z,0.70
2022-09-28T11:08:45.791Z,0.90
2022-09-28T11:11:54.949Z,0.32
2022-09-28T11:14:39.763Z,0.28
2022-09-28T11:17:45.502Z,0.38
2022-09-28T11:20:28.291Z,0.70
2022-09-28T11:23:15.832Z,2.28
2022-09-28T11:26:05.913Z,1.00
2022-09-28T11:28:37.125Z,0.40
2022-09-28T11:31:08.925Z,0.40
2022-09-28T11:33:46.337Z,0.52
2022-09-28T11:36:13.008Z,1.10
2022-09-28T11:39:09.144Z,0.65
2022-09-28T11:46:02.288Z,0.50
2022-09-28T11:48:57.659Z,0.30
2022-09-28T11:51:45.681Z,0.50
2022-09-28T11:54:14.532Z,0.60
2022-09-28T11:57:01.390Z,0.47
2022-09-28T12:03:34.157Z,0.70
2022-09-28T12:06:05.213Z,0.88
2022-09-28T12:13:00.191Z,1.30
2022-09-28T12:16:27.239Z,1.35
2022-09-28T12:23:13.272Z,0.50
2022-09-28T12:26:19.753Z,0.63
2022-09-28T12:32:49.594Z,0.35
2022-09-28T12:35:24.607Z,0.20
2022-09-28T12:46:46.068Z,0.77
2022-09-28T12:52:38.828Z,1.58
2022-09-28T13:00:02.830Z,0.95
2022-09-28T13:11:21.737Z,1.08
2022-09-28T13:15:04.103Z,1.10
2022-09-28T13:22:03.162Z,0.57
2022-09-28T13:25:17.100Z,0.68
2022-09-28T13:28:15.856Z,0.40
2022-09-28T13:35:20.153Z,0.30
2022-09-28T13:38:16.473Z,0.50
2022-09-28T13:45:26.237Z,0.35
2022-09-28T13:52:20.804Z,0.25
2022-09-28T13:55:03.137Z,0.20
2022-09-28T14:08:11.651Z,2.92
2022-09-28T14:11:29.148Z,1.77
2022-09-28T14:17:58.035Z,1.00
2022-09-28T14:20:26.376Z,1.33
2022-09-28T14:27:10.598Z,1.00
2022-09-28T14:29:39.192Z,0.73
2022-09-28T14:32:34.801Z,0.95
2022-09-28T14:35:06.623Z,0.90
2022-09-28T14:37:58.797Z,0.80
2022-09-28T14:41:10.214Z,0.88
2022-09-28T14:52:10.385Z,0.70
2022-09-28T14:54:52.934Z,0.30
2022-09-28T15:01:30.918Z,1.08
2022-09-28T15:04:04.757Z,1.33
2022-09-28T15:10:27.552Z,0.77
2022-09-28T15:13:26.801Z,2.58
2022-09-28T15:20:00.919Z,0.28
2022-09-28T15:22:27.895Z,1.40
2022-09-28T15:25:02.058Z,0.57
2022-09-28T15:27:39.369Z,0.60
2022-09-28T15:30:26.977Z,2.10
2022-09-28T15:33:49.337Z,0.38
2022-09-28T15:37:22.043Z,0.35
2022-09-28T15:40:16.505Z,0.43
2022-09-28T15:43:24.217Z,0.47
2022-09-28T15:46:04.102Z,0.32
2022-09-28T15:48:52.869Z,0.30
2022-09-28T15:51:22.176Z,0.40
2022-09-28T15:54:22.159Z,0.40
2022-09-28T15:57:02.757Z,0.60
2022-09-28T16:03:11.198Z,0.50
2022-09-28T16:06:24.278Z,0.30
2022-09-28T16:09:56.801Z,0.43
2022-09-28T16:16:16.937Z,0.65
2022-09-28T16:18:48.951Z,0.70
2022-09-28T16:25:16.569Z,0.30
2022-09-28T16:28:04.694Z,0.30
2022-09-28T16:35:13.170Z,0.38
2022-09-28T16:39:05.838Z,0.40
2022-09-28T16:41:32.605Z,0.10
2022-09-28T16:44:02.313Z,0.30
2022-09-28T16:46:39.166Z,0.88
2022-09-28T16:49:07.181Z,0.80
2022-09-28T16:51:46.146Z,2.15
2022-09-28T16:54:35.911Z,0.30
2022-09-28T16:57:22.114Z,0.25
2022-09-28T17:03:42.390Z,0.60
2022-09-28T17:06:11.660Z,0.60
2022-09-28T17:17:12.634Z,0.40
2022-09-28T17:27:45.387Z,2.50
2022-09-28T17:30:32.549Z,0.60
2022-09-28T17:33:29.379Z,0.60
2022-09-28T17:36:00.828Z,0.45
2022-09-28T17:38:27.743Z,0.35
2022-09-28T17:45:34.036Z,0.30
2022-09-28T17:48:24.486Z,0.60
2022-09-28T17:50:51.301Z,0.80
2022-09-28T18:05:15.769Z,1.38
2022-09-28T18:07:53.783Z,3.35
2022-09-28T18:10:23.429Z,1.85
2022-09-28T18:21:11.039Z,1.00
2022-09-28T18:23:38.633Z,2.95
2022-09-28T18:26:11.122Z,1.42
2022-09-28T18:28:39.373Z,1.55
2022-09-28T18:31:11.375Z,2.08
2022-09-28T18:33:38.694Z,1.80
2022-09-28T18:36:06.858Z,1.70
2022-09-28T18:42:25.425Z,2.10
2022-09-28T18:44:58.452Z,2.63
2022-09-28T18:47:25.625Z,2.83
2022-09-28T18:58:03.007Z,4.70
2022-09-28T19:01:13.484Z,4.15
2022-09-28T19:03:43.107Z,3.17
2022-09-28T19:06:15.954Z,4.28
2022-09-28T19:09:44.922Z,4.25
2022-09-28T19:15:52.273Z,1.48
2022-09-28T19:18:19.526Z,1.30
2022-09-28T19:32:20.164Z,1.10
2022-09-28T19:34:46.910Z,1.10
2022-09-28T19:37:13.638Z,2.30
2022-09-28T19:43:59.869Z,2.63
2022-09-28T19:51:04.615Z,1.92
2022-09-28T19:53:36.712Z,1.60
2022-09-28T19:59:44.413Z,2.03
2022-09-28T20:02:11.743Z,2.22
2022-09-28T20:04:38.797Z,2.03
2022-09-28T20:15:38.964Z,2.15
2022-09-28T20:21:48.233Z,1.75
2022-09-28T20:24:17.237Z,2.20
2022-09-28T20:26:46.010Z,3.35
2022-09-28T20:29:13.271Z,2.00
2022-09-28T20:31:40.490Z,3.17
2022-09-28T20:37:59.356Z,2.70
2022-09-28T20:40:27.290Z,3.58
2022-09-28T20:43:40.059Z,3.97
2022-09-28T20:53:47.069Z,1.33
2022-09-28T21:00:45.873Z,1.63
2022-09-28T21:07:23.678Z,1.10
2022-09-28T21:09:50.634Z,2.22
2022-09-28T21:12:18.177Z,1.10
2022-09-28T21:18:35.482Z,1.27
2022-09-28T21:21:04.929Z,2.25
2022-09-28T21:23:31.679Z,1.55
2022-09-28T21:26:11.571Z,1.58
2022-09-28T21:28:39.813Z,1.55
2022-09-28T21:35:00.079Z,2.25
2022-09-28T21:37:47.028Z,1.38
2022-09-28T21:40:34.111Z,2.22
2022-09-28T21:43:00.978Z,1.52
2022-09-28T21:45:27.713Z,1.67
2022-09-28T21:48:03.116Z,1.20
2022-09-28T21:50:29.863Z,3.08
2022-09-28T22:00:37.905Z,1.17
2022-09-28T22:06:55.071Z,5.63
2022-09-28T22:09:21.777Z,1.60
2022-09-28T22:12:39.449Z,1.30
2022-09-28T22:19:04.776Z,1.10
2022-09-28T22:21:34.277Z,1.42
2022-09-28T22:27:51.569Z,1.10
2022-09-28T22:30:18.268Z,1.52
2022-09-28T22:32:45.047Z,1.20
2022-09-28T22:35:12.005Z,1.88
2022-09-28T22:37:38.708Z,1.23
2022-09-28T22:44:28.598Z,1.60
2022-09-28T22:46:55.696Z,1.10
2022-09-28T22:49:22.744Z,1.27
2022-09-28T22:55:34.702Z,1.20
2022-09-28T22:58:02.060Z,1.10
2022-09-28T23:00:28.784Z,1.08
2022-09-28T23:11:37.988Z,0.90
2022-09-28T23:14:47.988Z,1.05
2022-09-28T23:17:44.143Z,1.38
2022-09-28T23:20:10.841Z,1.33
2022-09-28T23:22:37.508Z,1.92
2022-09-28T23:25:04.413Z,1.73
2022-09-28T23:27:31.128Z,1.48
2022-09-28T23:37:59.364Z,1.02
2022-09-28T23:40:26.136Z,1.55
2022-09-28T23:42:52.852Z,1.13
2022-09-28T23:50:35.339Z,2.50
2022-09-28T23:53:02.059Z,1.88
